Terminal Aerodrome Forecast
Issued by NWS

Home | Current Version | Previous Version | Text Only | Print | Product List | Glossary On
Versions: 1 2 3 4 5 6 7 8 9 10 11 12 13 14
000
FTUS46 KMTR 241120
TAFOAK
TAF
KOAK 241120Z 2412/2518 00000KT P6SM FEW005 SCT200
      TEMPO 2412/2415 5SM BR BKN005
     FM241800 28005KT P6SM FEW010 BKN150 OVC200
     FM242000 29007KT P6SM FEW010 BKN150
     FM250000 32005KT P6SM BKN120
     FM250500 VRB03KT P6SM SCT100 BKN200
     FM251000 VRB03KT P6SM FEW100 BKN200=

USA.gov is the U.S. government's official web portal to all federal, state and local government web resources and services.